createdAt,value
2022-11-09T00:01:58.774Z,69.63
2022-11-09T00:04:29.113Z,69.84
2022-11-09T00:06:59.569Z,69.79
2022-11-09T00:09:30.009Z,69.71
2022-11-09T00:12:02.136Z,69.74
2022-11-09T00:14:32.777Z,69.59
2022-11-09T00:17:03.087Z,69.74
2022-11-09T00:19:33.480Z,69.89
2022-11-09T00:22:03.888Z,70.13
2022-11-09T00:24:34.655Z,70.32
2022-11-09T00:27:05.055Z,70.41
2022-11-09T00:29:35.428Z,70.34
2022-11-09T00:32:06.163Z,70.08
2022-11-09T00:34:36.543Z,70.27
2022-11-09T00:37:06.926Z,70.47
2022-11-09T00:39:37.402Z,70.11
2022-11-09T00:42:07.880Z,69.94
2022-11-09T00:44:38.247Z,69.87
2022-11-09T00:47:08.570Z,69.92
2022-11-09T00:49:39.010Z,70.06
2022-11-09T00:52:09.873Z,70.09
2022-11-09T00:54:40.241Z,69.92
2022-11-09T00:57:10.653Z,70.28
2022-11-09T00:59:41.058Z,70.54
2022-11-09T01:02:11.468Z,70.46
2022-11-09T01:04:41.828Z,70.46
2022-11-09T01:07:12.322Z,70.60
2022-11-09T01:09:42.647Z,70.62
2022-11-09T01:12:14.429Z,70.73
2022-11-09T01:14:44.972Z,70.90
2022-11-09T01:17:15.397Z,70.92
2022-11-09T01:19:45.797Z,70.95
2022-11-09T01:22:17.010Z,70.71
2022-11-09T01:24:47.312Z,70.76
2022-11-09T01:27:17.747Z,71.12
2022-11-09T01:29:48.176Z,71.06
2022-11-09T01:32:18.640Z,71.47
2022-11-09T01:34:48.906Z,71.18
2022-11-09T01:37:19.301Z,71.34
2022-11-09T01:39:49.669Z,71.36
2022-11-09T01:42:26.333Z,71.25
2022-11-09T01:45:19.607Z,71.28
2022-11-09T01:47:53.090Z,71.49
2022-11-09T01:50:26.498Z,71.58
2022-11-09T01:52:57.254Z,71.66
2022-11-09T01:55:28.004Z,71.76
2022-11-09T01:58:10.234Z,71.69
2022-11-09T02:00:43.813Z,71.43
2022-11-09T02:03:23.184Z,71.76
2022-11-09T02:05:53.913Z,71.68
2022-11-09T02:08:26.794Z,71.91
2022-11-09T02:11:02.732Z,71.83
2022-11-09T02:13:34.549Z,71.65
2022-11-09T02:16:05.365Z,71.97
2022-11-09T02:18:36.822Z,71.92
2022-11-09T02:21:07.503Z,71.98
2022-11-09T02:23:38.094Z,72.00
2022-11-09T02:26:11.476Z,72.25
2022-11-09T02:28:43.118Z,72.50
2022-11-09T02:31:16.695Z,72.76
2022-11-09T02:33:55.953Z,72.71
2022-11-09T02:36:26.390Z,72.86
2022-11-09T02:38:57.353Z,73.03
2022-11-09T02:41:28.969Z,73.05
2022-11-09T02:44:01.468Z,72.91
2022-11-09T02:46:37.458Z,73.03
2022-11-09T02:49:07.772Z,72.96
2022-11-09T02:51:38.415Z,73.14
2022-11-09T02:54:08.870Z,72.98
2022-11-09T02:56:39.293Z,73.05
2022-11-09T02:59:09.661Z,72.68
2022-11-09T03:01:40.109Z,72.81
2022-11-09T03:04:10.798Z,72.87
2022-11-09T03:06:41.325Z,72.55
2022-11-09T03:09:13.728Z,72.73
2022-11-09T03:11:44.542Z,72.45
2022-11-09T03:14:15.034Z,72.33
2022-11-09T03:16:50.275Z,72.25
2022-11-09T03:19:18.118Z,72.07
2022-11-09T03:21:48.490Z,72.05
2022-11-09T03:24:18.902Z,72.10
2022-11-09T03:26:49.321Z,71.82
2022-11-09T03:29:19.628Z,71.54
2022-11-09T03:31:50.009Z,71.41
2022-11-09T03:34:20.401Z,71.41
2022-11-09T03:36:50.704Z,71.24
2022-11-09T03:39:21.183Z,71.26
2022-11-09T03:41:51.558Z,71.34
2022-11-09T03:44:22.427Z,71.08
2022-11-09T03:46:52.821Z,71.24
2022-11-09T03:49:23.812Z,71.13
2022-11-09T03:51:54.194Z,71.08
2022-11-09T03:54:24.569Z,70.85
2022-11-09T03:56:56.104Z,70.88
2022-11-09T03:59:26.508Z,72.34
2022-11-09T04:01:57.003Z,73.75
2022-11-09T04:04:27.579Z,74.37
2022-11-09T04:06:58.010Z,74.42
2022-11-09T04:09:28.369Z,73.91
2022-11-09T04:11:58.831Z,74.61
2022-11-09T04:14:29.256Z,74.46
2022-11-09T04:16:59.633Z,74.39
2022-11-09T04:19:30.051Z,74.00
2022-11-09T04:22:03.102Z,73.97
2022-11-09T04:24:33.494Z,74.07
2022-11-09T04:27:04.152Z,73.95
2022-11-09T04:29:34.580Z,73.88
2022-11-09T04:32:04.993Z,73.93
2022-11-09T04:34:35.383Z,73.80
2022-11-09T04:37:05.772Z,73.89
2022-11-09T04:39:36.168Z,73.86
2022-11-09T04:42:07.467Z,74.50
2022-11-09T04:44:37.857Z,74.49
2022-11-09T04:47:08.257Z,74.68
2022-11-09T04:49:38.608Z,74.47
2022-11-09T04:52:09.003Z,74.55
2022-11-09T04:54:39.330Z,74.68
2022-11-09T04:57:09.737Z,74.43
2022-11-09T04:59:40.107Z,74.61
2022-11-09T05:02:10.960Z,74.57
2022-11-09T05:04:44.060Z,74.77
2022-11-09T05:07:13.390Z,74.79
2022-11-09T05:09:43.899Z,74.95
2022-11-09T05:12:14.459Z,75.14
2022-11-09T05:14:44.871Z,75.43
2022-11-09T05:17:15.209Z,75.24
2022-11-09T05:19:45.603Z,75.55
2022-11-09T05:22:34.156Z,75.96
2022-11-09T05:25:04.506Z,76.49
2022-11-09T05:27:34.887Z,76.35
2022-11-09T05:30:05.864Z,76.51
2022-11-09T05:32:39.082Z,76.66
2022-11-09T05:35:09.891Z,76.20
2022-11-09T05:37:41.103Z,77.28
2022-11-09T05:40:12.172Z,77.40
2022-11-09T05:42:42.897Z,77.39
2022-11-09T05:45:40.835Z,77.39
2022-11-09T05:47:47.853Z,77.59
2022-11-09T05:50:18.311Z,77.28
2022-11-09T05:52:48.673Z,77.58
2022-11-09T05:55:19.401Z,77.27
2022-11-09T05:57:49.928Z,77.41
2022-11-09T06:00:20.950Z,77.04
2022-11-09T06:02:51.624Z,77.14
2022-11-09T06:05:21.996Z,76.95
2022-11-09T06:07:53.930Z,77.17
2022-11-09T06:10:24.383Z,77.28
2022-11-09T06:12:54.759Z,77.50
2022-11-09T06:15:25.262Z,77.62
2022-11-09T06:17:56.490Z,77.45
2022-11-09T06:20:28.214Z,77.18
2022-11-09T06:23:04.011Z,76.65
2022-11-09T06:25:34.379Z,76.72
2022-11-09T06:28:04.906Z,76.65
2022-11-09T06:30:35.414Z,76.73
2022-11-09T06:33:06.823Z,76.67
2022-11-09T06:35:37.899Z,77.85
2022-11-09T06:38:09.760Z,77.58
2022-11-09T06:40:40.166Z,77.54
2022-11-09T06:43:11.164Z,78.71
2022-11-09T06:45:41.545Z,79.74
2022-11-09T06:48:12.513Z,79.36
2022-11-09T06:50:43.231Z,81.45
2022-11-09T06:53:15.797Z,80.89
2022-11-09T06:55:50.511Z,81.67
2022-11-09T06:58:19.380Z,81.92
2022-11-09T07:00:50.305Z,83.33
2022-11-09T07:03:22.847Z,84.56
2022-11-09T07:05:54.095Z,84.90
2022-11-09T07:08:24.597Z,85.19
2022-11-09T07:10:55.034Z,85.15
2022-11-09T07:13:25.377Z,86.72
2022-11-09T07:15:55.753Z,86.80
2022-11-09T07:18:26.369Z,87.88
2022-11-09T07:20:56.737Z,87.57
2022-11-09T07:23:27.127Z,87.91
2022-11-09T07:25:59.834Z,88.38
2022-11-09T07:28:30.237Z,88.61
2022-11-09T07:31:00.876Z,88.72
2022-11-09T07:33:33.199Z,89.03
2022-11-09T07:36:05.209Z,89.29
2022-11-09T07:38:35.637Z,89.44
2022-11-09T07:41:06.164Z,89.52
2022-11-09T07:43:36.543Z,89.94
2022-11-09T07:46:06.956Z,89.86
2022-11-09T07:48:37.357Z,89.88
2022-11-09T07:51:07.874Z,90.11
2022-11-09T07:53:38.734Z,90.16
2022-11-09T07:56:09.261Z,90.07
2022-11-09T07:58:39.655Z,89.90
2022-11-09T08:01:11.314Z,89.78
2022-11-09T08:03:56.322Z,89.88
2022-11-09T08:06:28.404Z,89.43
2022-11-09T08:08:58.900Z,89.43
2022-11-09T08:11:29.466Z,89.32
2022-11-09T08:13:59.907Z,89.17
2022-11-09T08:16:36.438Z,89.19
2022-11-09T08:19:02.481Z,88.86
2022-11-09T08:21:42.580Z,88.86
2022-11-09T08:24:14.412Z,88.68
2022-11-09T08:26:44.868Z,88.53
2022-11-09T08:29:15.825Z,88.47
2022-11-09T08:31:46.139Z,88.18
2022-11-09T08:34:16.894Z,88.12
2022-11-09T08:36:47.312Z,87.96
2022-11-09T08:39:17.690Z,88.34
2022-11-09T08:41:48.076Z,88.08
2022-11-09T08:44:18.621Z,88.11
2022-11-09T08:46:48.993Z,88.08
2022-11-09T08:49:19.452Z,88.07
2022-11-09T08:51:49.782Z,87.55
2022-11-09T08:54:20.184Z,87.72
2022-11-09T08:56:50.574Z,87.24
2022-11-09T08:59:21.026Z,87.54
2022-11-09T09:01:51.573Z,87.40
2022-11-09T09:04:22.027Z,87.18
2022-11-09T09:06:52.737Z,87.32
2022-11-09T09:09:23.215Z,87.18
2022-11-09T09:11:53.777Z,86.82
2022-11-09T09:14:24.642Z,86.97
2022-11-09T09:16:55.013Z,86.37
2022-11-09T09:19:25.413Z,86.75
2022-11-09T09:21:55.740Z,86.34
2022-11-09T09:24:27.797Z,86.05
2022-11-09T09:26:58.174Z,85.66
2022-11-09T09:29:28.650Z,85.52
2022-11-09T09:31:59.053Z,85.38
2022-11-09T09:34:29.512Z,85.00
2022-11-09T09:36:59.880Z,83.73
2022-11-09T09:39:30.324Z,82.98
2022-11-09T09:42:03.471Z,82.27
2022-11-09T09:44:36.960Z,81.65
2022-11-09T09:47:21.858Z,81.82
2022-11-09T09:50:01.157Z,82.63
2022-11-09T09:52:54.168Z,81.85
2022-11-09T09:55:22.091Z,81.88
2022-11-09T09:57:58.075Z,81.58
2022-11-09T10:00:29.029Z,82.06
2022-11-09T10:03:00.399Z,81.83
2022-11-09T10:05:39.758Z,80.96
2022-11-09T10:08:28.322Z,81.29
2022-11-09T10:11:13.694Z,81.10
2022-11-09T10:13:52.980Z,78.47
2022-11-09T10:16:35.083Z,79.31
2022-11-09T10:19:26.776Z,80.04
2022-11-09T10:22:03.228Z,81.07
2022-11-09T10:25:16.864Z,81.52
2022-11-09T10:27:29.515Z,81.84
2022-11-09T10:30:01.967Z,82.26
2022-11-09T10:32:35.546Z,82.11
2022-11-09T10:35:17.976Z,81.16
2022-11-09T10:37:52.119Z,81.43
2022-11-09T10:40:37.539Z,80.80
2022-11-09T10:43:11.380Z,80.29
2022-11-09T10:45:47.243Z,79.53
2022-11-09T10:48:20.976Z,80.09
2022-11-09T10:50:53.935Z,80.04
2022-11-09T10:53:26.856Z,79.98
2022-11-09T10:56:20.313Z,78.97
2022-11-09T10:58:52.739Z,78.42
2022-11-09T11:01:25.626Z,78.69
2022-11-09T11:03:57.334Z,78.16
2022-11-09T11:06:31.450Z,76.93
2022-11-09T11:09:07.912Z,78.57
2022-11-09T11:11:40.292Z,77.90
2022-11-09T11:14:25.591Z,77.45
2022-11-09T11:16:56.404Z,76.70
2022-11-09T11:19:41.274Z,75.83
2022-11-09T11:22:14.739Z,75.89
2022-11-09T11:25:00.124Z,73.79
2022-11-09T11:27:45.720Z,72.56
2022-11-09T11:30:23.340Z,73.85
2022-11-09T11:32:54.673Z,74.16
2022-11-09T11:35:36.572Z,71.26
2022-11-09T11:38:15.200Z,69.12
2022-11-09T11:40:54.599Z,66.89
2022-11-09T11:43:39.617Z,67.85
2022-11-09T11:46:13.083Z,67.23
2022-11-09T11:49:22.566Z,69.48
2022-11-09T11:52:14.232Z,67.34
2022-11-09T11:55:18.234Z,69.01
2022-11-09T11:58:00.923Z,70.96
2022-11-09T12:00:34.325Z,70.28
2022-11-09T12:03:14.858Z,69.68
2022-11-09T12:05:51.117Z,67.76
2022-11-09T12:08:41.078Z,68.46
2022-11-09T12:11:14.499Z,68.67
2022-11-09T12:13:51.031Z,68.54
2022-11-09T12:16:34.056Z,69.31
2022-11-09T12:19:35.975Z,70.56
2022-11-09T12:22:21.653Z,71.55
2022-11-09T12:25:13.140Z,73.35
2022-11-09T12:27:55.729Z,73.81
2022-11-09T12:30:29.178Z,73.53
2022-11-09T12:33:02.576Z,73.65
2022-11-09T12:35:39.030Z,70.88
2022-11-09T12:38:15.400Z,70.58
2022-11-09T12:40:48.851Z,71.39
2022-11-09T12:43:33.903Z,69.58
2022-11-09T12:46:06.525Z,66.46
2022-11-09T12:48:37.264Z,66.77
2022-11-09T12:51:09.140Z,65.84
2022-11-09T12:53:40.622Z,65.06
2022-11-09T12:56:26.309Z,67.56
2022-11-09T12:59:16.151Z,69.24
2022-11-09T13:01:49.625Z,68.79
2022-11-09T13:04:22.637Z,67.41
2022-11-09T13:07:11.782Z,68.46
2022-11-09T13:09:45.121Z,70.41
2022-11-09T13:12:36.094Z,70.49
2022-11-09T13:15:29.227Z,72.36
2022-11-09T13:18:05.946Z,72.03
2022-11-09T13:20:56.852Z,72.31
2022-11-09T13:23:54.537Z,72.55
2022-11-09T13:26:02.103Z,73.03
2022-11-09T13:28:35.664Z,73.13
2022-11-09T13:31:07.641Z,73.67
2022-11-09T13:33:39.231Z,73.81
2022-11-09T13:36:12.983Z,74.38
2022-11-09T13:38:44.021Z,74.66
2022-11-09T13:41:32.471Z,74.75
2022-11-09T13:44:27.164Z,75.26
2022-11-09T13:46:57.773Z,75.28
2022-11-09T13:49:40.245Z,76.28
2022-11-09T13:52:47.429Z,76.03
2022-11-09T13:55:27.521Z,76.14
2022-11-09T13:58:01.310Z,76.33
2022-11-09T14:00:32.247Z,77.55
2022-11-09T14:03:06.667Z,77.04
2022-11-09T14:05:39.428Z,77.22
2022-11-09T14:08:12.974Z,77.36
2022-11-09T14:11:04.756Z,77.40
2022-11-09T14:13:50.085Z,76.74
2022-11-09T14:16:40.897Z,76.98
2022-11-09T14:19:14.379Z,78.38
2022-11-09T14:21:47.819Z,77.67
2022-11-09T14:24:21.351Z,78.68
2022-11-09T14:27:02.735Z,78.92
2022-11-09T14:29:36.130Z,78.76
2022-11-09T14:32:30.061Z,78.61
2022-11-09T14:35:15.030Z,78.50
2022-11-09T14:37:46.068Z,78.31
2022-11-09T14:40:28.704Z,78.49
2022-11-09T14:43:20.513Z,78.51
2022-11-09T14:45:59.979Z,79.02
2022-11-09T14:48:32.348Z,78.79
2022-11-09T14:51:05.561Z,78.57
2022-11-09T14:53:41.558Z,78.72
2022-11-09T14:56:14.766Z,78.89
2022-11-09T14:58:46.237Z,79.02
2022-11-09T15:01:25.266Z,79.46
2022-11-09T15:04:13.273Z,79.79
2022-11-09T15:07:00.331Z,79.79
2022-11-09T15:09:45.478Z,80.33
2022-11-09T15:12:20.941Z,80.35
2022-11-09T15:14:57.664Z,80.79
2022-11-09T15:17:33.959Z,81.10
2022-11-09T15:20:18.821Z,80.86
2022-11-09T15:23:00.651Z,80.52
2022-11-09T15:25:45.913Z,80.68
2022-11-09T15:28:19.825Z,81.08
2022-11-09T15:30:59.363Z,81.08
2022-11-09T15:33:41.520Z,81.62
2022-11-09T15:36:29.908Z,81.43
2022-11-09T15:39:15.216Z,81.74
2022-11-09T15:41:45.961Z,81.85
2022-11-09T15:44:17.146Z,82.00
2022-11-09T15:46:53.977Z,82.12
2022-11-09T15:49:27.369Z,82.49
2022-11-09T15:51:58.031Z,82.30
2022-11-09T15:54:28.595Z,82.31
2022-11-09T15:56:58.913Z,82.60
2022-11-09T15:59:29.338Z,82.75
2022-11-09T16:01:59.817Z,82.81
2022-11-09T16:04:30.206Z,82.72
2022-11-09T16:07:00.583Z,82.92
2022-11-09T16:09:31.072Z,83.02
2022-11-09T16:12:01.416Z,83.35
2022-11-09T16:14:33.148Z,83.50
2022-11-09T16:17:03.766Z,83.48
2022-11-09T16:19:34.557Z,83.65
2022-11-09T16:22:06.452Z,83.29
2022-11-09T16:24:36.913Z,83.47
2022-11-09T16:27:16.939Z,83.61
2022-11-09T16:29:41.467Z,83.62
2022-11-09T16:32:11.901Z,83.52
2022-11-09T16:34:44.176Z,83.87
2022-11-09T16:37:16.247Z,84.07
2022-11-09T16:39:46.817Z,84.24
2022-11-09T16:42:19.620Z,84.25
2022-11-09T16:44:50.418Z,84.18
2022-11-09T16:47:21.935Z,84.26
2022-11-09T16:49:52.362Z,84.39
2022-11-09T16:52:23.285Z,84.60
2022-11-09T16:54:53.693Z,84.48
2022-11-09T16:57:24.277Z,84.64
2022-11-09T16:59:54.508Z,84.71
2022-11-09T17:02:26.404Z,84.74
2022-11-09T17:04:56.849Z,84.93
2022-11-09T17:07:28.562Z,84.64
2022-11-09T17:09:58.989Z,84.95
2022-11-09T17:12:31.588Z,84.95
2022-11-09T17:15:02.050Z,84.93
2022-11-09T17:17:32.606Z,85.23
2022-11-09T17:20:04.682Z,85.34
2022-11-09T17:22:35.086Z,85.34
2022-11-09T17:25:06.132Z,85.36
2022-11-09T17:27:39.340Z,85.52
2022-11-09T17:30:11.908Z,85.53
2022-11-09T17:32:42.333Z,85.52
2022-11-09T17:35:12.769Z,85.56
2022-11-09T17:37:43.165Z,85.73
2022-11-09T17:40:13.671Z,85.73
2022-11-09T17:42:44.563Z,85.95
2022-11-09T17:45:15.014Z,86.12
2022-11-09T17:47:45.778Z,85.70
2022-11-09T17:50:16.757Z,85.75
2022-11-09T17:52:47.354Z,86.11
2022-11-09T17:55:18.025Z,86.13
2022-11-09T17:57:48.682Z,86.23
2022-11-09T18:00:20.075Z,86.45
2022-11-09T18:02:50.484Z,86.34
2022-11-09T18:05:20.997Z,86.35
2022-11-09T18:07:51.383Z,86.11
2022-11-09T18:10:21.983Z,85.96
2022-11-09T18:12:52.354Z,85.99
2022-11-09T18:15:23.613Z,85.40
2022-11-09T18:17:54.217Z,85.31
2022-11-09T18:20:25.009Z,85.24
2022-11-09T18:22:55.802Z,85.20
2022-11-09T18:25:27.379Z,85.00
2022-11-09T18:27:58.278Z,84.26
2022-11-09T18:30:28.753Z,84.33
2022-11-09T18:32:59.316Z,84.37
2022-11-09T18:35:29.686Z,84.26
2022-11-09T18:38:00.182Z,83.84
2022-11-09T18:40:30.663Z,83.78
2022-11-09T18:43:01.107Z,82.82
2022-11-09T18:45:33.152Z,83.38
2022-11-09T18:48:03.581Z,83.25
2022-11-09T18:50:33.903Z,81.85
2022-11-09T18:53:04.278Z,81.83
2022-11-09T18:55:34.644Z,81.26
2022-11-09T18:58:05.043Z,80.02
2022-11-09T19:00:35.477Z,79.16
2022-11-09T19:03:06.089Z,79.13
2022-11-09T19:05:39.522Z,77.83
2022-11-09T19:08:10.112Z,78.12
2022-11-09T19:10:40.857Z,77.66
2022-11-09T19:13:11.242Z,77.77
2022-11-09T19:15:44.328Z,77.70
2022-11-09T19:18:14.667Z,77.89
2022-11-09T19:20:45.038Z,78.33
2022-11-09T19:23:16.232Z,77.75
2022-11-09T19:25:46.626Z,77.50
2022-11-09T19:28:17.724Z,78.07
2022-11-09T19:30:48.193Z,78.22
2022-11-09T19:33:18.604Z,78.07
2022-11-09T19:36:23.393Z,78.00
2022-11-09T19:38:26.605Z,78.16
2022-11-09T19:40:57.429Z,78.59
2022-11-09T19:43:27.850Z,78.82
2022-11-09T19:45:58.212Z,79.23
2022-11-09T19:48:29.204Z,78.93
2022-11-09T19:50:59.602Z,79.21
2022-11-09T19:53:30.383Z,79.54
2022-11-09T19:56:07.261Z,79.13
2022-11-09T19:58:38.466Z,79.08
2022-11-09T20:01:11.169Z,79.76
2022-11-09T20:03:41.673Z,79.71
2022-11-09T20:06:12.063Z,80.14
2022-11-09T20:08:42.682Z,80.28
2022-11-09T20:11:33.724Z,80.50
2022-11-09T20:14:08.383Z,80.63
2022-11-09T20:16:40.000Z,80.63
2022-11-09T20:19:12.986Z,81.10
2022-11-09T20:21:44.665Z,81.18
2022-11-09T20:24:18.620Z,81.26
2022-11-09T20:26:48.922Z,81.46
2022-11-09T20:29:19.879Z,81.78
2022-11-09T20:31:50.243Z,81.83
2022-11-09T20:34:20.613Z,81.83
2022-11-09T20:36:51.712Z,81.96
2022-11-09T20:39:22.409Z,82.16
2022-11-09T20:41:52.818Z,82.40
2022-11-09T20:44:23.263Z,82.53
2022-11-09T20:46:53.633Z,82.95
2022-11-09T20:49:24.006Z,83.07
2022-11-09T20:51:54.367Z,83.45
2022-11-09T20:54:24.767Z,83.33
2022-11-09T20:56:55.155Z,83.59
2022-11-09T20:59:25.639Z,83.84
2022-11-09T21:01:56.221Z,83.89
2022-11-09T21:04:26.647Z,83.87
2022-11-09T21:06:57.178Z,84.21
2022-11-09T21:09:27.740Z,84.10
2022-11-09T21:12:16.091Z,83.66
2022-11-09T21:14:46.637Z,83.75
2022-11-09T21:17:18.731Z,83.74
2022-11-09T21:19:49.272Z,83.80
2022-11-09T21:22:19.592Z,83.35
2022-11-09T21:25:07.887Z,83.42
2022-11-09T21:27:49.299Z,83.37
2022-11-09T21:30:19.739Z,83.39
2022-11-09T21:32:50.615Z,83.27
2022-11-09T21:35:22.127Z,83.23
2022-11-09T21:37:52.745Z,83.14
2022-11-09T21:40:24.404Z,83.02
2022-11-09T21:42:56.413Z,82.86
2022-11-09T21:45:27.373Z,83.03
2022-11-09T21:47:57.826Z,82.80
2022-11-09T21:50:28.225Z,82.95
2022-11-09T21:52:58.551Z,82.90
2022-11-09T21:55:29.149Z,82.89
2022-11-09T21:57:59.714Z,82.91
2022-11-09T22:00:30.314Z,82.36
2022-11-09T22:03:03.363Z,82.33
2022-11-09T22:05:33.669Z,82.27
2022-11-09T22:08:04.057Z,81.99
2022-11-09T22:10:34.616Z,81.87
2022-11-09T22:13:23.320Z,81.62
2022-11-09T22:16:09.658Z,81.65
2022-11-09T22:18:58.220Z,81.60
2022-11-09T22:21:29.505Z,81.86
2022-11-09T22:24:01.066Z,81.72
2022-11-09T22:26:32.604Z,81.92
2022-11-09T22:29:03.593Z,81.86
2022-11-09T22:31:34.079Z,81.35
2022-11-09T22:34:04.665Z,80.74
2022-11-09T22:36:35.052Z,80.85
2022-11-09T22:39:06.743Z,80.91
2022-11-09T22:41:37.405Z,81.39
2022-11-09T22:44:08.058Z,81.06
2022-11-09T22:46:38.552Z,81.32
2022-11-09T22:49:10.314Z,81.21
2022-11-09T22:51:40.783Z,81.28
2022-11-09T22:54:11.419Z,81.13
2022-11-09T22:56:41.888Z,81.08
2022-11-09T22:59:13.091Z,80.85
2022-11-09T23:01:43.600Z,80.34
2022-11-09T23:04:14.269Z,78.35
2022-11-09T23:06:44.771Z,78.15
2022-11-09T23:09:15.321Z,77.38
2022-11-09T23:11:45.722Z,76.66
2022-11-09T23:14:17.879Z,75.97
2022-11-09T23:16:48.296Z,75.85
2022-11-09T23:19:18.806Z,75.60
2022-11-09T23:21:49.298Z,75.68
2022-11-09T23:24:37.567Z,76.12
2022-11-09T23:27:08.024Z,76.23
2022-11-09T23:29:38.510Z,76.48
2022-11-09T23:32:08.928Z,76.72
2022-11-09T23:34:39.338Z,76.61
2022-11-09T23:37:09.735Z,76.26
2022-11-09T23:39:40.100Z,75.91
2022-11-09T23:42:10.483Z,75.52
2022-11-09T23:44:40.897Z,75.05
2022-11-09T23:47:11.454Z,74.79
2022-11-09T23:49:41.918Z,74.26
2022-11-09T23:52:12.431Z,74.24
2022-11-09T23:54:43.186Z,74.04
2022-11-09T23:57:14.130Z,73.80
2022-11-09T23:59:44.510Z,73.86
